createdAt,value
2023-03-31T00:00:46.812Z,100371.38
2023-03-31T00:03:21.711Z,100372.97
2023-03-31T00:05:48.667Z,100372.97
2023-03-31T00:08:15.081Z,100351.31
2023-03-31T00:10:46.555Z,100349.53
2023-03-31T00:13:13.453Z,100337.44
2023-03-31T00:15:39.886Z,100341.63
2023-03-31T00:18:06.794Z,100332.00
2023-03-31T00:20:33.543Z,100331.19
2023-03-31T00:23:01.742Z,100327.50
2023-03-31T00:25:28.340Z,100311.75
2023-03-31T00:27:54.776Z,100322.19
2023-03-31T00:30:21.395Z,100310.81
2023-03-31T00:32:47.865Z,100303.81
2023-03-31T00:35:14.344Z,100301.09
2023-03-31T00:37:43.185Z,100299.13
2023-03-31T00:40:10.264Z,100286.91
2023-03-31T00:42:43.847Z,100286.78
2023-03-31T00:45:16.654Z,100282.31
2023-03-31T00:47:57.544Z,100278.75
2023-03-31T00:50:32.105Z,100268.19
2023-03-31T00:53:12.242Z,100267.13
2023-03-31T00:55:44.758Z,100260.16
2023-03-31T00:58:14.402Z,100257.44
2023-03-31T01:00:42.612Z,100251.25
2023-03-31T01:03:10.332Z,100249.38
2023-03-31T01:05:44.529Z,100249.19
2023-03-31T01:08:12.210Z,100236.84
2023-03-31T01:10:43.501Z,100238.41
2023-03-31T01:13:12.294Z,100226.91
2023-03-31T01:15:39.225Z,100222.31
2023-03-31T01:18:06.955Z,100209.16
2023-03-31T01:20:59.806Z,100196.19
2023-03-31T01:24:03.880Z,100202.44
2023-03-31T01:27:04.213Z,100190.44
2023-03-31T01:30:09.052Z,100188.66
2023-03-31T01:32:35.655Z,100185.31
2023-03-31T01:35:21.095Z,100170.47
2023-03-31T01:38:25.637Z,100164.41
2023-03-31T01:41:29.284Z,100157.53
2023-03-31T01:44:16.426Z,100155.13
2023-03-31T01:46:59.135Z,100143.94
2023-03-31T01:49:43.865Z,100143.13
2023-03-31T01:52:38.288Z,100140.63
2023-03-31T01:55:39.532Z,100126.00
2023-03-31T01:58:10.920Z,100125.88
2023-03-31T02:00:44.961Z,100122.34
2023-03-31T02:03:17.197Z,100123.16
2023-03-31T02:05:49.745Z,100108.44
2023-03-31T02:08:23.125Z,100106.53
2023-03-31T02:10:52.549Z,100099.44
2023-03-31T02:13:21.057Z,100091.38
2023-03-31T02:15:53.231Z,100086.03
2023-03-31T02:18:26.392Z,100080.72
2023-03-31T02:20:57.358Z,100073.59
2023-03-31T02:23:31.580Z,100069.94
2023-03-31T02:26:07.168Z,100068.88
2023-03-31T02:28:34.883Z,100054.03
2023-03-31T02:31:10.310Z,100051.28
2023-03-31T02:33:36.960Z,100043.25
2023-03-31T02:36:06.273Z,100036.97
2023-03-31T02:38:42.112Z,100034.34
2023-03-31T02:41:09.376Z,100016.88
2023-03-31T02:43:35.817Z,100012.50
2023-03-31T02:46:02.356Z,100016.78
2023-03-31T02:48:32.666Z,100012.50
2023-03-31T02:51:33.409Z,99997.75
2023-03-31T02:54:23.922Z,99981.34
2023-03-31T02:57:24.378Z,99978.75
2023-03-31T03:00:16.684Z,99972.91
2023-03-31T03:02:58.331Z,99967.06
2023-03-31T03:05:27.709Z,99955.09
2023-03-31T03:08:01.016Z,99944.75
2023-03-31T03:11:11.615Z,99941.41
2023-03-31T03:14:05.516Z,99935.34
2023-03-31T03:16:44.360Z,99923.34
2023-03-31T03:19:19.544Z,99924.28
2023-03-31T03:21:47.491Z,99920.00
2023-03-31T03:24:16.980Z,99910.53
2023-03-31T03:26:44.830Z,99903.59
2023-03-31T03:29:15.781Z,99904.56
2023-03-31T03:31:42.628Z,99897.78
2023-03-31T03:34:12.706Z,99903.00
2023-03-31T03:36:39.942Z,99898.00
2023-03-31T03:39:08.101Z,99891.84
2023-03-31T03:41:34.599Z,99887.56
2023-03-31T03:44:01.213Z,99869.41
2023-03-31T03:46:27.751Z,99861.66
2023-03-31T03:48:54.340Z,99851.34
2023-03-31T03:51:20.944Z,99850.50
2023-03-31T03:53:47.418Z,99841.03
2023-03-31T03:56:13.905Z,99846.34
2023-03-31T03:58:40.331Z,99837.69
2023-03-31T04:01:07.150Z,99829.94
2023-03-31T04:03:33.593Z,99833.50
2023-03-31T04:06:00.143Z,99823.19
2023-03-31T04:08:27.264Z,99826.84
2023-03-31T04:10:53.746Z,99818.28
2023-03-31T04:13:20.420Z,99814.03
2023-03-31T04:15:47.240Z,99801.94
2023-03-31T04:18:23.231Z,99793.38
2023-03-31T04:20:54.811Z,99791.72
2023-03-31T04:23:23.485Z,99774.25
2023-03-31T04:25:51.399Z,99768.22
2023-03-31T04:28:17.772Z,99752.78
2023-03-31T04:30:44.403Z,99746.72
2023-03-31T04:33:10.890Z,99743.28
2023-03-31T04:35:49.695Z,99731.28
2023-03-31T04:38:21.951Z,99725.25
2023-03-31T04:40:50.600Z,99716.59
2023-03-31T04:43:18.918Z,99706.22
2023-03-31T04:45:45.592Z,99700.19
2023-03-31T04:48:12.343Z,99697.44
2023-03-31T04:50:40.251Z,99699.13
2023-03-31T04:53:07.291Z,99686.78
2023-03-31T04:55:34.663Z,99693.56
2023-03-31T04:58:01.352Z,99683.69
2023-03-31T05:00:28.944Z,99686.09
2023-03-31T05:02:55.721Z,99672.06
2023-03-31T05:05:22.219Z,99667.69
2023-03-31T05:07:48.627Z,99664.00
2023-03-31T05:10:15.361Z,99650.13
2023-03-31T05:12:41.845Z,99654.53
2023-03-31T05:15:08.690Z,99649.28
2023-03-31T05:17:36.797Z,99636.25
2023-03-31T05:20:08.196Z,99631.84
2023-03-31T05:22:36.760Z,99630.88
2023-03-31T05:25:05.151Z,99623.91
2023-03-31T05:27:32.380Z,99624.84
2023-03-31T05:29:58.816Z,99622.22
2023-03-31T05:32:26.652Z,99621.28
2023-03-31T05:34:56.994Z,99622.81
2023-03-31T05:37:27.075Z,99601.00
2023-03-31T05:39:53.819Z,99596.59
2023-03-31T05:42:21.272Z,99600.88
2023-03-31T05:44:47.830Z,99595.63
2023-03-31T05:47:14.713Z,99590.41
2023-03-31T05:49:41.369Z,99588.63
2023-03-31T05:52:09.175Z,99589.47
2023-03-31T05:54:35.641Z,99588.53
2023-03-31T05:57:02.374Z,99585.91
2023-03-31T05:59:29.067Z,99572.72
2023-03-31T06:01:55.832Z,99575.22
2023-03-31T06:04:22.373Z,99568.09
2023-03-31T06:06:50.356Z,99573.31
2023-03-31T06:09:17.903Z,99575.91
2023-03-31T06:11:47.593Z,99569.06
2023-03-31T06:14:15.240Z,99564.50
2023-03-31T06:16:41.673Z,99567.84
2023-03-31T06:19:08.275Z,99550.28
2023-03-31T06:21:34.746Z,99550.16
2023-03-31T06:24:01.700Z,99549.09
2023-03-31T06:26:28.390Z,99551.44
2023-03-31T06:28:54.913Z,99546.00
2023-03-31T06:31:23.802Z,99537.19
2023-03-31T06:33:51.117Z,99538.59
2023-03-31T06:36:20.383Z,99541.94
2023-03-31T06:38:47.044Z,99536.06
2023-03-31T06:41:14.866Z,99532.72
2023-03-31T06:43:41.517Z,99530.94
2023-03-31T06:46:08.663Z,99532.97
2023-03-31T06:48:35.598Z,99526.91
2023-03-31T06:51:06.622Z,99529.41
2023-03-31T06:53:33.932Z,99522.66
2023-03-31T06:56:00.623Z,99520.88
2023-03-31T06:58:29.733Z,99519.78
2023-03-31T07:00:57.872Z,99514.81
2023-03-31T07:03:25.304Z,99515.06
2023-03-31T07:05:54.137Z,99517.69
2023-03-31T07:08:21.694Z,99508.97
2023-03-31T07:10:50.217Z,99511.25
2023-03-31T07:13:17.533Z,99509.31
2023-03-31T07:15:46.906Z,99516.22
2023-03-31T07:18:15.602Z,99509.31
2023-03-31T07:20:43.140Z,99518.00
2023-03-31T07:23:09.799Z,99514.81
2023-03-31T07:25:36.677Z,99515.88
2023-03-31T07:28:05.020Z,99506.84
2023-03-31T07:30:32.038Z,99506.84
2023-03-31T07:32:59.192Z,99506.84
2023-03-31T07:35:25.889Z,99496.97
2023-03-31T07:37:52.428Z,99498.63
2023-03-31T07:40:23.259Z,99500.28
2023-03-31T07:42:51.678Z,99490.66
2023-03-31T07:45:22.961Z,99500.72
2023-03-31T07:47:49.787Z,99495.41
2023-03-31T07:50:16.952Z,99490.03
2023-03-31T07:52:46.707Z,99485.50
2023-03-31T07:55:14.099Z,99487.75
2023-03-31T07:57:41.529Z,99491.88
2023-03-31T08:00:12.407Z,99482.66
2023-03-31T08:02:42.725Z,99482.19
2023-03-31T08:05:11.292Z,99483.50
2023-03-31T08:07:40.360Z,99485.69
2023-03-31T08:10:09.585Z,99479.25
2023-03-31T08:12:36.783Z,99477.09
2023-03-31T08:15:04.001Z,99461.84
2023-03-31T08:17:30.631Z,99469.66
2023-03-31T08:19:58.416Z,99454.44
2023-03-31T08:22:26.367Z,99454.84
2023-03-31T08:24:53.015Z,99448.44
2023-03-31T08:27:19.531Z,99448.22
2023-03-31T08:29:46.109Z,99445.75
2023-03-31T08:32:12.729Z,99442.28
2023-03-31T08:34:42.536Z,99449.78
2023-03-31T08:37:10.394Z,99444.50
2023-03-31T08:39:37.305Z,99453.19
2023-03-31T08:42:20.392Z,99447.00
2023-03-31T08:45:03.586Z,99437.94
2023-03-31T08:47:34.153Z,99431.66
2023-03-31T08:50:07.305Z,99430.03
2023-03-31T08:52:52.044Z,99430.06
2023-03-31T08:55:25.809Z,99423.59
2023-03-31T08:58:26.440Z,99421.41
2023-03-31T09:01:11.218Z,99420.19
2023-03-31T09:03:52.093Z,99419.38
2023-03-31T09:06:29.929Z,99411.09
2023-03-31T09:09:01.781Z,99411.34
2023-03-31T09:11:40.611Z,99410.81
2023-03-31T09:14:36.888Z,99409.16
2023-03-31T09:17:27.626Z,99406.97
2023-03-31T09:19:56.225Z,99402.03
2023-03-31T09:22:27.841Z,99402.03
2023-03-31T09:25:26.004Z,99396.41
2023-03-31T09:27:58.139Z,99397.09
2023-03-31T09:30:30.817Z,99387.16
2023-03-31T09:33:32.146Z,99374.06
2023-03-31T09:35:59.932Z,99385.53
2023-03-31T09:38:31.161Z,99375.28
2023-03-31T09:40:59.150Z,99364.66
2023-03-31T09:43:31.633Z,99371.00
2023-03-31T09:46:09.231Z,99367.84
2023-03-31T09:48:38.982Z,99376.56
2023-03-31T09:51:07.914Z,99373.38
2023-03-31T09:53:41.352Z,99366.47
2023-03-31T09:56:11.415Z,99371.00
2023-03-31T09:58:43.082Z,99364.84
2023-03-31T10:01:12.087Z,99368.81
2023-03-31T10:03:56.022Z,99368.53
2023-03-31T10:06:24.437Z,99360.69
2023-03-31T10:08:58.160Z,99370.59
2023-03-31T10:11:27.245Z,99371.97
2023-03-31T10:14:03.768Z,99365.56
2023-03-31T10:16:42.776Z,99361.34
2023-03-31T10:19:31.595Z,99352.78
2023-03-31T10:22:09.298Z,99342.97
2023-03-31T10:24:41.556Z,99346.38
2023-03-31T10:27:19.871Z,99342.91
2023-03-31T10:29:47.217Z,99342.59
2023-03-31T10:32:30.634Z,99338.56
2023-03-31T10:34:58.930Z,99334.00
2023-03-31T10:37:28.576Z,99337.25
2023-03-31T10:40:00.855Z,99328.19
2023-03-31T10:42:28.861Z,99338.63
2023-03-31T10:45:33.658Z,99322.97
2023-03-31T10:48:16.820Z,99304.72
2023-03-31T10:50:43.818Z,99319.34
2023-03-31T10:53:15.860Z,99310.16
2023-03-31T10:56:12.409Z,99321.75
2023-03-31T10:58:38.796Z,99318.88
2023-03-31T11:01:24.051Z,99316.34
2023-03-31T11:04:02.884Z,99303.97
2023-03-31T11:06:52.637Z,99318.00
2023-03-31T11:09:36.820Z,99324.88
2023-03-31T11:12:24.711Z,99316.13
2023-03-31T11:15:07.293Z,99306.50
2023-03-31T11:18:01.925Z,99313.97
2023-03-31T11:20:33.064Z,99313.66
2023-03-31T11:23:22.325Z,99309.13
2023-03-31T11:26:02.685Z,99312.47
2023-03-31T11:28:35.446Z,99306.16
2023-03-31T11:31:23.815Z,99297.63
2023-03-31T11:34:09.021Z,99298.47
2023-03-31T11:36:57.404Z,99299.63
2023-03-31T11:39:29.920Z,99288.78
2023-03-31T11:42:05.690Z,99281.16
2023-03-31T11:44:41.593Z,99296.09
2023-03-31T11:47:18.644Z,99294.56
2023-03-31T11:49:54.926Z,99294.66
2023-03-31T11:52:40.747Z,99310.09
2023-03-31T11:55:16.395Z,99302.47
2023-03-31T11:58:11.475Z,99304.13
2023-03-31T12:01:09.994Z,99305.25
2023-03-31T12:04:03.524Z,99303.75
2023-03-31T12:06:40.628Z,99300.59
2023-03-31T12:09:36.016Z,99302.25
2023-03-31T12:12:11.139Z,99299.22
2023-03-31T12:14:50.193Z,99295.09
2023-03-31T12:17:22.995Z,99285.72
2023-03-31T12:19:57.268Z,99287.50
2023-03-31T12:22:37.871Z,99273.03
2023-03-31T12:25:05.713Z,99234.31
2023-03-31T12:27:47.340Z,99286.16
2023-03-31T12:30:42.356Z,99287.25
2023-03-31T12:33:45.117Z,99273.72
2023-03-31T12:36:35.954Z,99269.56
2023-03-31T12:39:23.221Z,99272.72
2023-03-31T12:42:06.090Z,99270.00
2023-03-31T12:44:38.911Z,99277.31
2023-03-31T12:47:15.149Z,99263.84
2023-03-31T12:49:52.813Z,99249.06
2023-03-31T12:52:44.012Z,99255.56
2023-03-31T12:55:37.276Z,99251.00
2023-03-31T12:58:40.620Z,99243.91
2023-03-31T13:01:21.487Z,99241.53
2023-03-31T13:03:58.500Z,99239.03
2023-03-31T13:06:27.963Z,99237.81
2023-03-31T13:09:42.751Z,99231.56
2023-03-31T13:12:15.486Z,99228.53
2023-03-31T13:14:44.871Z,99229.59
2023-03-31T13:17:32.572Z,99221.44
2023-03-31T13:20:29.135Z,99207.94
2023-03-31T13:23:05.955Z,99209.19
2023-03-31T13:25:45.448Z,99207.84
2023-03-31T13:28:16.304Z,99209.81
2023-03-31T13:30:42.689Z,99215.94
2023-03-31T13:33:12.987Z,99211.09
2023-03-31T13:35:42.622Z,99206.69
2023-03-31T13:38:09.114Z,99200.78
2023-03-31T13:40:50.876Z,99202.50
2023-03-31T13:43:48.615Z,99199.03
2023-03-31T13:46:31.181Z,99197.13
2023-03-31T13:49:05.952Z,99195.06
2023-03-31T13:51:46.377Z,99196.28
2023-03-31T13:54:16.883Z,99202.63
2023-03-31T13:57:21.110Z,99205.84
2023-03-31T14:00:24.537Z,99201.06
2023-03-31T14:03:03.150Z,99195.84
2023-03-31T14:05:39.740Z,99192.41
2023-03-31T14:08:29.902Z,99185.88
2023-03-31T14:11:16.974Z,99188.53
2023-03-31T14:13:43.468Z,99187.03
2023-03-31T14:16:10.946Z,99182.06
2023-03-31T14:18:47.474Z,99180.44
2023-03-31T14:21:24.632Z,99179.31
2023-03-31T14:24:05.509Z,99171.53
2023-03-31T14:27:05.695Z,99168.16
2023-03-31T14:29:43.891Z,99166.78
2023-03-31T14:32:38.587Z,99160.28
2023-03-31T14:35:26.570Z,99157.94
2023-03-31T14:37:55.235Z,99153.44
2023-03-31T14:40:22.718Z,99154.53
2023-03-31T14:42:52.197Z,99154.16
2023-03-31T14:45:25.261Z,99156.63
2023-03-31T14:47:59.059Z,99147.31
2023-03-31T14:50:42.206Z,99152.59
2023-03-31T14:53:16.208Z,99153.44
2023-03-31T14:55:58.177Z,99160.59
2023-03-31T15:07:13.316Z,99154.06
2023-03-31T15:09:41.377Z,99156.28
2023-03-31T15:12:13.633Z,99149.41
2023-03-31T15:14:47.055Z,99161.72
2023-03-31T15:17:38.139Z,99148.66
2023-03-31T15:20:28.216Z,99154.47
2023-03-31T15:22:59.886Z,99139.47
2023-03-31T15:25:32.924Z,99139.91
2023-03-31T15:28:14.134Z,99133.84
2023-03-31T15:30:47.688Z,99142.13
2023-03-31T15:33:22.486Z,99146.28
2023-03-31T15:35:49.363Z,99143.25
2023-03-31T15:38:18.623Z,99143.53
2023-03-31T15:40:51.119Z,99145.78
2023-03-31T15:43:26.883Z,99137.50
2023-03-31T15:45:55.633Z,99133.34
2023-03-31T15:48:34.745Z,99134.59
2023-03-31T15:51:05.639Z,99134.88
2023-03-31T15:53:50.917Z,99136.94
2023-03-31T15:56:33.507Z,99139.19
2023-03-31T15:59:06.853Z,99143.56
2023-03-31T16:01:38.827Z,99138.88
2023-03-31T16:04:12.094Z,99135.59
2023-03-31T16:06:52.553Z,99134.88
2023-03-31T16:09:42.328Z,99132.41
2023-03-31T16:12:25.736Z,99129.09
2023-03-31T16:15:05.731Z,99134.50
2023-03-31T16:17:37.569Z,99128.19
2023-03-31T16:20:16.934Z,99130.38
2023-03-31T16:22:47.245Z,99124.59
2023-03-31T16:25:17.831Z,99132.72
2023-03-31T16:27:48.649Z,99131.34
2023-03-31T16:30:18.901Z,99133.53
2023-03-31T16:33:03.242Z,99127.09
2023-03-31T16:35:34.719Z,99122.25
2023-03-31T16:38:04.300Z,99125.28
2023-03-31T16:40:41.241Z,99118.25
2023-03-31T16:43:15.395Z,99115.81
2023-03-31T16:45:45.725Z,99116.63
2023-03-31T16:48:16.285Z,99106.84
2023-03-31T16:50:46.678Z,99106.00
2023-03-31T16:53:15.205Z,99107.53
2023-03-31T16:55:42.118Z,99108.34
2023-03-31T16:58:08.875Z,99096.91
2023-03-31T17:00:36.792Z,99100.94
2023-03-31T17:03:04.804Z,99091.97
2023-03-31T17:05:33.949Z,99092.13
2023-03-31T17:08:00.779Z,99096.38
2023-03-31T17:10:27.309Z,99093.38
2023-03-31T17:12:53.853Z,99101.72
2023-03-31T17:15:20.486Z,99105.03
2023-03-31T17:17:47.765Z,99104.47
2023-03-31T17:20:14.377Z,99108.03
2023-03-31T17:22:41.576Z,99101.16
2023-03-31T17:25:08.654Z,99102.97
2023-03-31T17:27:35.222Z,99104.75
2023-03-31T17:30:02.114Z,99103.50
2023-03-31T17:32:28.965Z,99101.03
2023-03-31T17:34:55.444Z,99089.88
2023-03-31T17:37:22.545Z,99091.53
2023-03-31T17:39:49.031Z,99094.13
2023-03-31T17:42:16.705Z,99089.59
2023-03-31T17:44:43.274Z,99092.22
2023-03-31T17:47:09.678Z,99082.47
2023-03-31T17:49:36.412Z,99087.00
2023-03-31T17:52:03.605Z,99095.09
2023-03-31T17:54:30.430Z,99093.47
2023-03-31T17:56:57.069Z,99091.22
2023-03-31T17:59:24.002Z,99095.38
2023-03-31T18:01:50.801Z,99085.75
2023-03-31T18:04:17.286Z,99078.88
2023-03-31T18:06:44.773Z,99084.25
2023-03-31T18:09:11.881Z,99084.25
2023-03-31T18:11:40.547Z,99082.84
2023-03-31T18:14:07.697Z,99084.78
2023-03-31T18:16:35.752Z,99072.81
2023-03-31T18:19:02.757Z,99080.75
2023-03-31T18:21:29.176Z,99082.69
2023-03-31T18:23:55.662Z,99076.50
2023-03-31T18:26:24.279Z,99080.22
2023-03-31T18:28:50.972Z,99081.19
2023-03-31T18:31:17.844Z,99082.16
2023-03-31T18:33:44.416Z,99078.84
2023-03-31T18:36:16.866Z,99072.78
2023-03-31T18:38:44.720Z,99078.97
2023-03-31T18:41:11.458Z,99082.28
2023-03-31T18:43:38.200Z,99084.88
2023-03-31T18:46:04.802Z,99074.44
2023-03-31T18:48:31.646Z,99088.47
2023-03-31T18:50:58.346Z,99086.00
2023-03-31T18:53:25.125Z,99087.75
2023-03-31T18:55:57.576Z,99080.63
2023-03-31T18:58:25.368Z,99093.69
2023-03-31T19:00:52.570Z,99088.63
2023-03-31T19:03:19.361Z,99087.75
2023-03-31T19:05:46.333Z,99096.44
2023-03-31T19:08:12.969Z,99090.38
2023-03-31T19:10:39.675Z,99086.94
2023-03-31T19:13:06.481Z,99089.81
2023-03-31T19:15:33.789Z,99085.56
2023-03-31T19:18:00.368Z,99089.00
2023-03-31T19:20:26.894Z,99092.84
2023-03-31T19:22:53.697Z,99085.28
2023-03-31T19:25:20.937Z,99087.19
2023-03-31T19:27:48.370Z,99091.72
2023-03-31T19:30:21.134Z,99090.66
2023-03-31T19:32:49.289Z,99091.47
2023-03-31T19:35:20.356Z,99091.72
2023-03-31T19:37:48.704Z,99096.81
2023-03-31T19:40:15.503Z,99088.84
2023-03-31T19:42:42.306Z,99080.03
2023-03-31T19:45:09.248Z,99079.09
2023-03-31T19:47:35.773Z,99080.75
2023-03-31T19:50:02.518Z,99070.41
2023-03-31T19:52:29.540Z,99075.53
2023-03-31T19:54:56.146Z,99071.25
2023-03-31T19:57:22.805Z,99077.31
2023-03-31T19:59:49.393Z,99062.47
2023-03-31T20:02:16.296Z,99066.16
2023-03-31T20:04:43.066Z,99056.81
2023-03-31T20:07:09.815Z,99060.38
2023-03-31T20:09:37.329Z,99053.53
2023-03-31T20:12:04.220Z,99054.34
2023-03-31T20:14:30.941Z,99054.34
2023-03-31T20:17:00.770Z,99054.19
2023-03-31T20:19:27.776Z,99043.91
2023-03-31T20:21:54.425Z,99048.31
2023-03-31T20:24:21.489Z,99051.84
2023-03-31T20:26:48.050Z,99037.16
2023-03-31T20:29:14.561Z,99047.84
2023-03-31T20:31:41.829Z,99041.94
2023-03-31T20:34:13.961Z,99039.31
2023-03-31T20:36:42.535Z,99042.78
2023-03-31T20:39:09.845Z,99026.25
2023-03-31T20:41:37.420Z,99032.19
2023-03-31T20:44:05.928Z,99036.72
2023-03-31T20:46:32.812Z,99026.25
2023-03-31T20:48:59.589Z,99027.94
2023-03-31T20:51:30.845Z,99027.13
2023-03-31T20:53:58.722Z,99034.25
2023-03-31T20:56:27.557Z,99034.25
2023-03-31T20:58:57.340Z,99034.50
2023-03-31T21:01:24.762Z,99029.72
2023-03-31T21:03:52.901Z,99028.03
2023-03-31T21:06:19.909Z,99035.88
2023-03-31T21:08:51.811Z,99034.22
2023-03-31T21:11:18.459Z,99032.59
2023-03-31T21:13:45.462Z,99038.63
2023-03-31T21:16:12.669Z,99044.94
2023-03-31T21:18:39.354Z,99030.34
2023-03-31T21:21:12.273Z,99032.03
2023-03-31T21:23:40.434Z,99032.84
2023-03-31T21:26:11.577Z,99026.66
2023-03-31T21:28:39.045Z,99032.03
2023-03-31T21:31:06.864Z,99031.31
2023-03-31T21:39:25.025Z,99042.16
2023-03-31T21:41:52.093Z,99043.09
2023-03-31T21:44:18.569Z,99044.91
2023-03-31T21:46:45.238Z,99042.44
2023-03-31T21:49:11.824Z,99042.44
2023-03-31T21:51:38.486Z,99038.03
2023-03-31T21:54:05.218Z,99035.53
2023-03-31T21:56:32.646Z,99035.53
2023-03-31T21:59:00.203Z,99033.91
2023-03-31T22:01:26.748Z,99046.84
2023-03-31T22:03:53.408Z,99040.75
2023-03-31T22:06:21.473Z,99042.44
2023-03-31T22:33:40.967Z,99054.75
2023-03-31T22:36:08.020Z,99043.47
2023-03-31T22:38:34.616Z,99053.81
2023-03-31T22:41:01.637Z,99050.34
2023-03-31T22:43:28.223Z,99048.69
2023-03-31T22:45:54.633Z,99061.63
2023-03-31T22:48:21.083Z,99059.13
2023-03-31T22:50:48.660Z,99061.75
2023-03-31T22:53:15.018Z,99063.41
2023-03-31T22:55:44.034Z,99054.88
2023-03-31T22:58:20.634Z,99063.53
2023-03-31T23:00:55.629Z,99051.31
2023-03-31T23:03:22.087Z,99066.00
2023-03-31T23:05:48.501Z,99071.22
2023-03-31T23:08:14.865Z,99062.47
2023-03-31T23:10:41.270Z,99074.53
2023-03-31T23:13:07.673Z,99071.94
2023-03-31T23:15:37.333Z,99075.50
2023-03-31T23:18:03.949Z,99073.16
2023-03-31T23:20:30.494Z,99082.50
2023-03-31T23:22:58.306Z,99080.84
2023-03-31T23:25:24.769Z,99076.72
2023-03-31T23:27:51.223Z,99077.66
2023-03-31T23:30:17.710Z,99081.94
2023-03-31T23:32:44.142Z,99084.41
2023-03-31T23:35:11.431Z,99080.03
2023-03-31T23:37:37.839Z,99074.69
2023-03-31T23:40:04.954Z,99076.31
2023-03-31T23:42:31.366Z,99079.75
2023-03-31T23:44:57.849Z,99083.19
2023-03-31T23:47:24.652Z,99083.06
2023-03-31T23:49:51.533Z,99084.97
2023-03-31T23:52:17.950Z,99081.41
2023-03-31T23:54:44.348Z,99081.41
2023-03-31T23:57:11.088Z,99088.28
2023-03-31T23:59:37.520Z,99092.69
